sensor_id;sensor_type;location;lat;lon;timestamp;temperature;humidity
37874;DHT22;23709;48.078;11.684;2023-12-20T06:13:51;5.30;99.90
37874;DHT22;23709;48.078;11.684;2023-12-20T06:16:25;5.00;99.90
37874;DHT22;23709;48.078;11.684;2023-12-20T06:18:57;5.00;99.90
37874;DHT22;23709;48.078;11.684;2023-12-20T06:21:29;5.00;99.90
37874;DHT22;23709;48.078;11.684;2023-12-20T06:26:46;5.10;99.90
37874;DHT22;23709;48.078;11.684;2023-12-20T06:29:19;5.10;99.90
37874;DHT22;23709;48.078;11.684;2023-12-20T06:31:51;5.10;99.90
37874;DHT22;23709;48.078;11.684;2023-12-20T06:34:23;5.10;99.90
37874;DHT22;23709;48.078;11.684;2023-12-20T06:36:56;5.10;99.90
37874;DHT22;23709;48.078;11.684;2023-12-20T06:39:28;5.00;99.90
37874;DHT22;23709;48.078;11.684;2023-12-20T06:42:03;5.00;99.90
37874;DHT22;23709;48.078;11.684;2023-12-20T06:44:36;5.00;99.90
37874;DHT22;23709;48.078;11.684;2023-12-20T06:47:09;5.00;99.90
37874;DHT22;23709;48.078;11.684;2023-12-20T06:49:41;4.90;99.90
37874;DHT22;23709;48.078;11.684;2023-12-20T06:52:14;4.80;99.90
37874;DHT22;23709;48.078;11.684;2023-12-20T06:54:46;4.80;99.90
37874;DHT22;23709;48.078;11.684;2023-12-20T06:57:19;4.80;99.90
37874;DHT22;23709;48.078;11.684;2023-12-20T06:59:53;4.80;99.90
37874;DHT22;23709;48.078;11.684;2023-12-20T07:02:25;4.70;99.90
37874;DHT22;23709;48.078;11.684;2023-12-20T07:04:58;4.70;99.90
37874;DHT22;23709;48.078;11.684;2023-12-20T07:07:30;4.70;99.90
37874;DHT22;23709;48.078;11.684;2023-12-20T07:10:03;4.70;99.90
37874;DHT22;23709;48.078;11.684;2023-12-20T07:12:46;4.70;99.90
37874;DHT22;23709;48.078;11.684;2023-12-20T07:15:22;4.70;99.90
37874;DHT22;23709;48.078;11.684;2023-12-20T07:17:56;4.60;99.90
37874;DHT22;23709;48.078;11.684;2023-12-20T07:20:29;4.60;99.90
37874;DHT22;23709;48.078;11.684;2023-12-20T07:23:01;4.60;99.90
37874;DHT22;23709;48.078;11.684;2023-12-20T07:25:34;4.60;99.90
37874;DHT22;23709;48.078;11.684;2023-12-20T07:28:06;4.60;99.90
37874;DHT22;23709;48.078;11.684;2023-12-20T07:30:39;4.50;99.90
37874;DHT22;23709;48.078;11.684;2023-12-20T07:33:11;4.50;99.90
37874;DHT22;23709;48.078;11.684;2023-12-20T07:35:44;4.50;99.90
37874;DHT22;23709;48.078;11.684;2023-12-20T07:38:18;4.50;99.90
37874;DHT22;23709;48.078;11.684;2023-12-20T07:40:50;4.50;99.90
37874;DHT22;23709;48.078;11.684;2023-12-20T07:43:23;4.50;99.90
37874;DHT22;23709;48.078;11.684;2023-12-20T07:45:55;4.50;99.90
37874;DHT22;23709;48.078;11.684;2023-12-20T07:48:28;4.50;99.90
37874;DHT22;23709;48.078;11.684;2023-12-20T07:51:01;4.50;99.90
37874;DHT22;23709;48.078;11.684;2023-12-20T07:53:33;4.50;99.90
37874;DHT22;23709;48.078;11.684;2023-12-20T07:56:16;4.60;99.90
37874;DHT22;23709;48.078;11.684;2023-12-20T07:58:49;4.50;99.90
37874;DHT22;23709;48.078;11.684;2023-12-20T08:01:25;4.50;99.90
37874;DHT22;23709;48.078;11.684;2023-12-20T08:03:57;4.50;99.90
37874;DHT22;23709;48.078;11.684;2023-12-20T08:06:29;4.50;99.90
37874;DHT22;23709;48.078;11.684;2023-12-20T08:09:04;4.60;99.90
37874;DHT22;23709;48.078;11.684;2023-12-20T08:11:38;4.60;99.90
37874;DHT22;23709;48.078;11.684;2023-12-20T08:14:12;4.60;99.90
37874;DHT22;23709;48.078;11.684;2023-12-20T08:16:47;4.70;99.90
37874;DHT22;23709;48.078;11.684;2023-12-20T08:19:20;4.60;99.90
37874;DHT22;23709;48.078;11.684;2023-12-20T08:21:54;4.60;99.90
37874;DHT22;23709;48.078;11.684;2023-12-20T08:24:27;4.60;99.90
37874;DHT22;23709;48.078;11.684;2023-12-20T08:26:59;4.60;99.90
37874;DHT22;23709;48.078;11.684;2023-12-20T08:29:31;4.60;99.90
37874;DHT22;23709;48.078;11.684;2023-12-20T08:32:04;4.70;99.90
37874;DHT22;23709;48.078;11.684;2023-12-20T08:34:36;4.70;99.90
37874;DHT22;23709;48.078;11.684;2023-12-20T08:37:09;4.70;99.90
37874;DHT22;23709;48.078;11.684;2023-12-20T08:39:41;4.80;99.90
37874;DHT22;23709;48.078;11.684;2023-12-20T08:42:17;4.80;99.90
37874;DHT22;23709;48.078;11.684;2023-12-20T08:44:49;4.80;99.90
37874;DHT22;23709;48.078;11.684;2023-12-20T08:47:21;4.80;99.90
37874;DHT22;23709;48.078;11.684;2023-12-20T08:49:54;4.70;99.90
37874;DHT22;23709;48.078;11.684;2023-12-20T08:52:28;4.70;99.90
37874;DHT22;23709;48.078;11.684;2023-12-20T08:55:01;4.70;99.90
37874;DHT22;23709;48.078;11.684;2023-12-20T08:57:34;4.70;99.90
37874;DHT22;23709;48.078;11.684;2023-12-20T09:00:07;4.70;99.90
37874;DHT22;23709;48.078;11.684;2023-12-20T09:02:41;4.70;99.90
37874;DHT22;23709;48.078;11.684;2023-12-20T09:05:14;4.70;99.90
37874;DHT22;23709;48.078;11.684;2023-12-20T09:07:46;4.70;99.90
37874;DHT22;23709;48.078;11.684;2023-12-20T09:10:19;4.80;99.90
37874;DHT22;23709;48.078;11.684;2023-12-20T09:12:54;4.80;99.90
37874;DHT22;23709;48.078;11.684;2023-12-20T09:15:29;4.80;99.90
37874;DHT22;23709;48.078;11.684;2023-12-20T09:18:06;4.80;99.90
37874;DHT22;23709;48.078;11.684;2023-12-20T09:20:39;4.90;99.90
37874;DHT22;23709;48.078;11.684;2023-12-20T09:23:15;4.90;99.90
37874;DHT22;23709;48.078;11.684;2023-12-20T09:25:47;4.90;99.90
37874;DHT22;23709;48.078;11.684;2023-12-20T09:28:19;4.90;99.90
37874;DHT22;23709;48.078;11.684;2023-12-20T09:30:53;5.00;99.90
37874;DHT22;23709;48.078;11.684;2023-12-20T09:33:26;5.00;99.90
37874;DHT22;23709;48.078;11.684;2023-12-20T09:35:58;5.00;99.90
37874;DHT22;23709;48.078;11.684;2023-12-20T09:38:31;5.00;99.90
37874;DHT22;23709;48.078;11.684;2023-12-20T09:41:03;5.00;99.90
37874;DHT22;23709;48.078;11.684;2023-12-20T09:43:37;5.00;99.90
37874;DHT22;23709;48.078;11.684;2023-12-20T09:46:12;5.00;99.90
37874;DHT22;23709;48.078;11.684;2023-12-20T09:48:48;5.10;99.90
37874;DHT22;23709;48.078;11.684;2023-12-20T09:51:21;5.10;99.90
37874;DHT22;23709;48.078;11.684;2023-12-20T09:53:54;5.10;99.90
37874;DHT22;23709;48.078;11.684;2023-12-20T09:56:28;5.10;99.90
37874;DHT22;23709;48.078;11.684;2023-12-20T09:59:01;5.10;99.90
37874;DHT22;23709;48.078;11.684;2023-12-20T10:01:35;5.10;99.90
37874;DHT22;23709;48.078;11.684;2023-12-20T10:04:10;5.10;99.90
37874;DHT22;23709;48.078;11.684;2023-12-20T10:07:02;5.20;99.90
37874;DHT22;23709;48.078;11.684;2023-12-20T10:09:38;5.10;99.90
37874;DHT22;23709;48.078;11.684;2023-12-20T10:12:10;5.20;99.90
37874;DHT22;23709;48.078;11.684;2023-12-20T10:14:43;5.20;99.90
37874;DHT22;23709;48.078;11.684;2023-12-20T10:17:15;5.20;99.90
37874;DHT22;23709;48.078;11.684;2023-12-20T10:19:47;5.30;99.90
37874;DHT22;23709;48.078;11.684;2023-12-20T10:22:21;5.30;99.90
37874;DHT22;23709;48.078;11.684;2023-12-20T10:24:54;5.30;99.90
37874;DHT22;23709;48.078;11.684;2023-12-20T10:27:28;5.40;99.90
37874;DHT22;23709;48.078;11.684;2023-12-20T10:30:00;5.40;99.90
37874;DHT22;23709;48.078;11.684;2023-12-20T10:32:33;5.40;99.90
37874;DHT22;23709;48.078;11.684;2023-12-20T10:35:06;5.50;99.90
37874;DHT22;23709;48.078;11.684;2023-12-20T10:37:39;5.50;99.90
37874;DHT22;23709;48.078;11.684;2023-12-20T10:40:12;5.70;99.90
37874;DHT22;23709;48.078;11.684;2023-12-20T10:42:45;5.70;99.90
37874;DHT22;23709;48.078;11.684;2023-12-20T10:45:19;5.70;99.90
37874;DHT22;23709;48.078;11.684;2023-12-20T10:47:51;5.80;99.90
37874;DHT22;23709;48.078;11.684;2023-12-20T10:50:23;5.80;99.90
37874;DHT22;23709;48.078;11.684;2023-12-20T10:52:57;5.80;99.90
37874;DHT22;23709;48.078;11.684;2023-12-20T10:55:30;5.90;99.90
37874;DHT22;23709;48.078;11.684;2023-12-20T10:58:08;5.90;99.90
37874;DHT22;23709;48.078;11.684;2023-12-20T11:00:41;5.90;99.90
37874;DHT22;23709;48.078;11.684;2023-12-20T11:03:16;5.90;99.90
37874;DHT22;23709;48.078;11.684;2023-12-20T11:08:51;5.90;99.90
37874;DHT22;23709;48.078;11.684;2023-12-20T11:11:37;5.90;99.90
37874;DHT22;23709;48.078;11.684;2023-12-20T11:14:23;6.00;99.90
37874;DHT22;23709;48.078;11.684;2023-12-20T11:17:06;6.00;99.90
37874;DHT22;23709;48.078;11.684;2023-12-20T11:22:31;5.90;99.90
37874;DHT22;23709;48.078;11.684;2023-12-20T11:25:10;5.90;99.90
37874;DHT22;23709;48.078;11.684;2023-12-20T11:27:43;5.90;99.90
37874;DHT22;23709;48.078;11.684;2023-12-20T11:30:20;5.90;99.90
37874;DHT22;23709;48.078;11.684;2023-12-20T11:32:52;5.90;99.90
37874;DHT22;23709;48.078;11.684;2023-12-20T11:35:28;5.80;99.90
37874;DHT22;23709;48.078;11.684;2023-12-20T11:38:00;5.80;99.90
37874;DHT22;23709;48.078;11.684;2023-12-20T11:40:34;5.80;99.90
37874;DHT22;23709;48.078;11.684;2023-12-20T11:43:06;5.80;99.90
37874;DHT22;23709;48.078;11.684;2023-12-20T11:45:49;5.80;99.90
37874;DHT22;23709;48.078;11.684;2023-12-20T11:48:22;5.80;99.90
37874;DHT22;23709;48.078;11.684;2023-12-20T11:50:55;5.70;99.90
37874;DHT22;23709;48.078;11.684;2023-12-20T11:53:27;5.70;99.90
37874;DHT22;23709;48.078;11.684;2023-12-20T11:56:00;5.70;99.90
37874;DHT22;23709;48.078;11.684;2023-12-20T11:58:35;5.70;99.90
37874;DHT22;23709;48.078;11.684;2023-12-20T12:01:08;5.70;99.90
37874;DHT22;23709;48.078;11.684;2023-12-20T12:03:41;5.80;99.90
37874;DHT22;23709;48.078;11.684;2023-12-20T12:06:15;5.90;99.90
37874;DHT22;23709;48.078;11.684;2023-12-20T12:08:47;5.90;99.90
37874;DHT22;23709;48.078;11.684;2023-12-20T12:11:19;6.00;99.90
37874;DHT22;23709;48.078;11.684;2023-12-20T12:13:52;6.00;99.90
37874;DHT22;23709;48.078;11.684;2023-12-20T12:16:25;5.90;99.90
37874;DHT22;23709;48.078;11.684;2023-12-20T12:18:58;5.90;99.90
37874;DHT22;23709;48.078;11.684;2023-12-20T12:21:31;5.80;99.90
37874;DHT22;23709;48.078;11.684;2023-12-20T12:24:09;5.90;99.90
37874;DHT22;23709;48.078;11.684;2023-12-20T12:26:42;5.80;99.90
37874;DHT22;23709;48.078;11.684;2023-12-20T12:29:14;5.80;99.90
37874;DHT22;23709;48.078;11.684;2023-12-20T12:31:46;5.80;99.90
37874;DHT22;23709;48.078;11.684;2023-12-20T12:34:18;5.70;99.90
37874;DHT22;23709;48.078;11.684;2023-12-20T12:36:51;5.80;99.90
37874;DHT22;23709;48.078;11.684;2023-12-20T12:39:24;5.60;99.90
37874;DHT22;23709;48.078;11.684;2023-12-20T12:41:59;5.70;99.90
37874;DHT22;23709;48.078;11.684;2023-12-20T12:44:31;5.70;99.90
37874;DHT22;23709;48.078;11.684;2023-12-20T12:47:04;5.70;99.90
37874;DHT22;23709;48.078;11.684;2023-12-20T12:49:37;5.70;99.90
37874;DHT22;23709;48.078;11.684;2023-12-20T12:52:11;5.70;99.90
37874;DHT22;23709;48.078;11.684;2023-12-20T12:54:44;5.70;99.90
37874;DHT22;23709;48.078;11.684;2023-12-20T12:57:17;5.70;99.90
37874;DHT22;23709;48.078;11.684;2023-12-20T12:59:50;5.70;99.90
37874;DHT22;23709;48.078;11.684;2023-12-20T13:02:23;5.70;99.90
37874;DHT22;23709;48.078;11.684;2023-12-20T13:04:55;5.60;99.90
37874;DHT22;23709;48.078;11.684;2023-12-20T13:07:28;5.70;99.90
37874;DHT22;23709;48.078;11.684;2023-12-20T13:10:01;5.60;99.90
37874;DHT22;23709;48.078;11.684;2023-12-20T13:12:33;5.70;99.90
37874;DHT22;23709;48.078;11.684;2023-12-20T13:15:06;5.80;99.90
37874;DHT22;23709;48.078;11.684;2023-12-20T13:17:38;5.80;99.90
37874;DHT22;23709;48.078;11.684;2023-12-20T13:20:11;5.90;99.90
37874;DHT22;23709;48.078;11.684;2023-12-20T13:22:43;6.00;99.90
37874;DHT22;23709;48.078;11.684;2023-12-20T13:25:16;6.00;99.90
37874;DHT22;23709;48.078;11.684;2023-12-20T13:27:49;6.00;99.90
37874;DHT22;23709;48.078;11.684;2023-12-20T13:30:21;6.00;99.90
37874;DHT22;23709;48.078;11.684;2023-12-20T13:32:54;5.90;99.90
37874;DHT22;23709;48.078;11.684;2023-12-20T13:35:27;5.90;99.90
37874;DHT22;23709;48.078;11.684;2023-12-20T13:38:00;5.90;99.90
37874;DHT22;23709;48.078;11.684;2023-12-20T13:40:33;5.80;99.90
37874;DHT22;23709;48.078;11.684;2023-12-20T13:43:05;5.70;99.90
37874;DHT22;23709;48.078;11.684;2023-12-20T13:45:38;5.60;99.90
37874;DHT22;23709;48.078;11.684;2023-12-20T13:48:11;5.50;99.90
37874;DHT22;23709;48.078;11.684;2023-12-20T13:50:43;5.30;99.90
37874;DHT22;23709;48.078;11.684;2023-12-20T13:53:16;5.20;99.90
37874;DHT22;23709;48.078;11.684;2023-12-20T13:55:48;5.00;99.90
37874;DHT22;23709;48.078;11.684;2023-12-20T13:58:22;4.90;99.90
37874;DHT22;23709;48.078;11.684;2023-12-20T14:00:54;4.90;99.90
37874;DHT22;23709;48.078;11.684;2023-12-20T14:03:26;4.80;99.90
37874;DHT22;23709;48.078;11.684;2023-12-20T14:05:59;4.70;99.90
37874;DHT22;23709;48.078;11.684;2023-12-20T14:08:32;4.70;99.90
37874;DHT22;23709;48.078;11.684;2023-12-20T14:11:04;4.70;99.90
37874;DHT22;23709;48.078;11.684;2023-12-20T14:13:37;4.60;99.90
37874;DHT22;23709;48.078;11.684;2023-12-20T14:16:10;4.60;99.90
37874;DHT22;23709;48.078;11.684;2023-12-20T14:18:42;4.60;99.90
37874;DHT22;23709;48.078;11.684;2023-12-20T14:21:15;4.60;99.90
37874;DHT22;23709;48.078;11.684;2023-12-20T14:23:47;4.70;99.90
37874;DHT22;23709;48.078;11.684;2023-12-20T14:26:20;4.80;99.90
37874;DHT22;23709;48.078;11.684;2023-12-20T14:28:53;4.80;99.90
37874;DHT22;23709;48.078;11.684;2023-12-20T14:31:26;4.80;99.90
37874;DHT22;23709;48.078;11.684;2023-12-20T14:33:58;4.80;99.90
37874;DHT22;23709;48.078;11.684;2023-12-20T14:36:31;4.80;99.90
37874;DHT22;23709;48.078;11.684;2023-12-20T14:39:03;4.80;99.90
37874;DHT22;23709;48.078;11.684;2023-12-20T14:41:36;4.80;99.90
37874;DHT22;23709;48.078;11.684;2023-12-20T14:44:10;4.80;99.90
37874;DHT22;23709;48.078;11.684;2023-12-20T14:46:42;4.80;99.90
37874;DHT22;23709;48.078;11.684;2023-12-20T14:49:14;4.80;99.90
37874;DHT22;23709;48.078;11.684;2023-12-20T14:51:47;4.80;99.90
37874;DHT22;23709;48.078;11.684;2023-12-20T14:54:20;4.70;99.90
37874;DHT22;23709;48.078;11.684;2023-12-20T14:56:53;4.70;99.90
37874;DHT22;23709;48.078;11.684;2023-12-20T14:59:26;4.70;99.90
37874;DHT22;23709;48.078;11.684;2023-12-20T15:01:58;4.70;99.90
37874;DHT22;23709;48.078;11.684;2023-12-20T15:04:31;4.70;99.90
37874;DHT22;23709;48.078;11.684;2023-12-20T15:07:04;4.70;99.90
37874;DHT22;23709;48.078;11.684;2023-12-20T15:09:38;4.60;99.90
37874;DHT22;23709;48.078;11.684;2023-12-20T15:12:11;4.60;99.90
37874;DHT22;23709;48.078;11.684;2023-12-20T15:14:44;4.70;99.90
37874;DHT22;23709;48.078;11.684;2023-12-20T15:17:16;4.70;99.90
37874;DHT22;23709;48.078;11.684;2023-12-20T15:19:49;4.70;99.90
37874;DHT22;23709;48.078;11.684;2023-12-20T15:22:22;4.70;99.90
37874;DHT22;23709;48.078;11.684;2023-12-20T15:24:54;4.70;99.90
37874;DHT22;23709;48.078;11.684;2023-12-20T15:27:35;4.70;99.90
37874;DHT22;23709;48.078;11.684;2023-12-20T15:30:10;4.70;99.90
37874;DHT22;23709;48.078;11.684;2023-12-20T15:32:42;4.70;99.90
37874;DHT22;23709;48.078;11.684;2023-12-20T15:35:15;4.70;99.90
37874;DHT22;23709;48.078;11.684;2023-12-20T15:37:48;4.70;99.90
37874;DHT22;23709;48.078;11.684;2023-12-20T15:40:20;4.70;99.90
37874;DHT22;23709;48.078;11.684;2023-12-20T15:42:53;4.70;99.90
37874;DHT22;23709;48.078;11.684;2023-12-20T15:45:26;4.70;99.90
37874;DHT22;23709;48.078;11.684;2023-12-20T15:47:59;4.60;99.90
37874;DHT22;23709;48.078;11.684;2023-12-20T15:50:31;4.60;99.90
37874;DHT22;23709;48.078;11.684;2023-12-20T15:53:03;4.70;99.90
37874;DHT22;23709;48.078;11.684;2023-12-20T15:55:37;4.60;99.90
37874;DHT22;23709;48.078;11.684;2023-12-20T15:58:09;4.50;99.90
37874;DHT22;23709;48.078;11.684;2023-12-20T16:00:41;4.50;99.90
37874;DHT22;23709;48.078;11.684;2023-12-20T16:03:14;4.40;99.90
37874;DHT22;23709;48.078;11.684;2023-12-20T16:05:56;4.40;99.90
37874;DHT22;23709;48.078;11.684;2023-12-20T16:08:30;4.30;99.90
37874;DHT22;23709;48.078;11.684;2023-12-20T16:11:03;4.30;99.90
37874;DHT22;23709;48.078;11.684;2023-12-20T16:13:36;4.20;99.90
37874;DHT22;23709;48.078;11.684;2023-12-20T16:16:08;4.20;99.90
37874;DHT22;23709;48.078;11.684;2023-12-20T16:18:41;4.20;99.90
37874;DHT22;23709;48.078;11.684;2023-12-20T16:21:13;4.10;99.90
37874;DHT22;23709;48.078;11.684;2023-12-20T16:23:46;4.10;99.90
37874;DHT22;23709;48.078;11.684;2023-12-20T16:26:18;4.00;99.90
37874;DHT22;23709;48.078;11.684;2023-12-20T16:28:50;3.90;99.90
37874;DHT22;23709;48.078;11.684;2023-12-20T16:31:23;4.00;99.90
37874;DHT22;23709;48.078;11.684;2023-12-20T16:33:55;4.00;99.90
37874;DHT22;23709;48.078;11.684;2023-12-20T16:36:48;4.00;99.90
37874;DHT22;23709;48.078;11.684;2023-12-20T16:39:22;4.10;99.90
37874;DHT22;23709;48.078;11.684;2023-12-20T16:41:55;4.10;99.90
37874;DHT22;23709;48.078;11.684;2023-12-20T16:44:28;4.10;99.90
37874;DHT22;23709;48.078;11.684;2023-12-20T16:47:00;4.10;99.90
37874;DHT22;23709;48.078;11.684;2023-12-20T16:49:33;4.10;99.90
37874;DHT22;23709;48.078;11.684;2023-12-20T16:52:05;4.20;99.90
37874;DHT22;23709;48.078;11.684;2023-12-20T16:54:38;4.10;99.90
37874;DHT22;23709;48.078;11.684;2023-12-20T16:57:10;4.10;99.90
37874;DHT22;23709;48.078;11.684;2023-12-20T16:59:42;4.20;99.90
37874;DHT22;23709;48.078;11.684;2023-12-20T17:02:16;4.20;99.90
37874;DHT22;23709;48.078;11.684;2023-12-20T17:04:48;4.20;99.90
37874;DHT22;23709;48.078;11.684;2023-12-20T17:07:20;4.20;99.90
37874;DHT22;23709;48.078;11.684;2023-12-20T17:09:53;4.20;99.90
37874;DHT22;23709;48.078;11.684;2023-12-20T17:12:25;4.10;99.90
37874;DHT22;23709;48.078;11.684;2023-12-20T17:14:57;4.10;99.90
37874;DHT22;23709;48.078;11.684;2023-12-20T17:17:32;4.10;99.90
37874;DHT22;23709;48.078;11.684;2023-12-20T17:20:05;4.10;99.90
37874;DHT22;23709;48.078;11.684;2023-12-20T17:22:38;4.00;99.90
37874;DHT22;23709;48.078;11.684;2023-12-20T17:25:10;4.00;99.90
37874;DHT22;23709;48.078;11.684;2023-12-20T17:27:43;4.00;99.90
37874;DHT22;23709;48.078;11.684;2023-12-20T17:30:18;4.00;99.90
37874;DHT22;23709;48.078;11.684;2023-12-20T17:32:50;4.00;99.90
37874;DHT22;23709;48.078;11.684;2023-12-20T17:35:23;4.00;99.90
37874;DHT22;23709;48.078;11.684;2023-12-20T17:37:55;3.90;99.90
37874;DHT22;23709;48.078;11.684;2023-12-20T17:40:28;3.90;99.90
37874;DHT22;23709;48.078;11.684;2023-12-20T17:43:00;4.00;99.90
37874;DHT22;23709;48.078;11.684;2023-12-20T17:45:32;4.00;99.90
37874;DHT22;23709;48.078;11.684;2023-12-20T17:48:05;4.00;99.90
37874;DHT22;23709;48.078;11.684;2023-12-20T17:50:37;3.90;99.90
37874;DHT22;23709;48.078;11.684;2023-12-20T17:53:10;4.00;99.90
37874;DHT22;23709;48.078;11.684;2023-12-20T17:55:42;4.00;99.90
37874;DHT22;23709;48.078;11.684;2023-12-20T17:58:15;3.90;99.90
37874;DHT22;23709;48.078;11.684;2023-12-20T18:00:50;4.00;99.90
37874;DHT22;23709;48.078;11.684;2023-12-20T18:03:22;4.00;99.90
37874;DHT22;23709;48.078;11.684;2023-12-20T18:05:54;4.00;99.90
37874;DHT22;23709;48.078;11.684;2023-12-20T18:08:27;4.00;99.90
37874;DHT22;23709;48.078;11.684;2023-12-20T18:10:59;4.00;99.90
37874;DHT22;23709;48.078;11.684;2023-12-20T18:13:31;4.00;99.90
37874;DHT22;23709;48.078;11.684;2023-12-20T18:16:04;4.10;99.90
37874;DHT22;23709;48.078;11.684;2023-12-20T18:18:42;4.00;99.90
37874;DHT22;23709;48.078;11.684;2023-12-20T18:21:14;4.10;99.90
37874;DHT22;23709;48.078;11.684;2023-12-20T18:23:46;3.90;99.90
37874;DHT22;23709;48.078;11.684;2023-12-20T18:26:20;3.90;99.90
37874;DHT22;23709;48.078;11.684;2023-12-20T18:28:53;3.90;99.90
37874;DHT22;23709;48.078;11.684;2023-12-20T18:31:25;3.90;99.90
37874;DHT22;23709;48.078;11.684;2023-12-20T18:33:58;3.90;99.90
37874;DHT22;23709;48.078;11.684;2023-12-20T18:36:31;3.90;99.90
37874;DHT22;23709;48.078;11.684;2023-12-20T18:39:03;3.90;99.90
37874;DHT22;23709;48.078;11.684;2023-12-20T18:41:36;3.80;99.90
37874;DHT22;23709;48.078;11.684;2023-12-20T18:44:08;3.80;99.90
37874;DHT22;23709;48.078;11.684;2023-12-20T18:46:41;3.70;99.90
37874;DHT22;23709;48.078;11.684;2023-12-20T18:49:14;3.80;99.90
37874;DHT22;23709;48.078;11.684;2023-12-20T18:51:46;3.80;99.90
37874;DHT22;23709;48.078;11.684;2023-12-20T18:54:19;3.90;99.90
37874;DHT22;23709;48.078;11.684;2023-12-20T18:56:52;3.90;99.90
37874;DHT22;23709;48.078;11.684;2023-12-20T18:59:25;3.80;99.90
37874;DHT22;23709;48.078;11.684;2023-12-20T19:01:58;3.80;99.90
37874;DHT22;23709;48.078;11.684;2023-12-20T19:04:32;3.80;99.90
37874;DHT22;23709;48.078;11.684;2023-12-20T19:07:04;3.80;99.90
37874;DHT22;23709;48.078;11.684;2023-12-20T19:09:37;3.80;99.90
37874;DHT22;23709;48.078;11.684;2023-12-20T19:12:09;3.70;99.90
37874;DHT22;23709;48.078;11.684;2023-12-20T19:14:42;3.80;99.90
37874;DHT22;23709;48.078;11.684;2023-12-20T19:17:15;3.80;99.90
37874;DHT22;23709;48.078;11.684;2023-12-20T19:19:47;3.70;99.90
37874;DHT22;23709;48.078;11.684;2023-12-20T19:22:20;3.70;99.90
37874;DHT22;23709;48.078;11.684;2023-12-20T19:24:52;3.60;99.90
37874;DHT22;23709;48.078;11.684;2023-12-20T19:27:25;3.60;99.90
37874;DHT22;23709;48.078;11.684;2023-12-20T19:29:57;3.70;99.90
37874;DHT22;23709;48.078;11.684;2023-12-20T19:32:30;3.70;99.90
37874;DHT22;23709;48.078;11.684;2023-12-20T19:35:03;3.90;99.90
37874;DHT22;23709;48.078;11.684;2023-12-20T19:37:35;4.00;99.90
37874;DHT22;23709;48.078;11.684;2023-12-20T19:40:08;3.90;99.90
37874;DHT22;23709;48.078;11.684;2023-12-20T19:42:42;3.90;99.90
37874;DHT22;23709;48.078;11.684;2023-12-20T19:45:14;3.90;99.90
37874;DHT22;23709;48.078;11.684;2023-12-20T19:47:49;3.90;99.90
37874;DHT22;23709;48.078;11.684;2023-12-20T19:50:23;4.00;99.90
37874;DHT22;23709;48.078;11.684;2023-12-20T19:52:55;3.90;99.90
37874;DHT22;23709;48.078;11.684;2023-12-20T19:55:28;3.90;99.90
37874;DHT22;23709;48.078;11.684;2023-12-20T19:58:00;4.10;99.90
37874;DHT22;23709;48.078;11.684;2023-12-20T20:00:33;4.10;99.90
